Gardner, Kansas
Current Conditions -  °F | °C
As of 5:38 AM on Friday 24 Oct 2014 (Local Time) from KIXD Reporting Station
Haze Haze  
Wind Chill: 54°   Ceiling: 100
Heat Index: 54°   Visibility: 0.75mi
Dew Point: 54°   Wind: 8mph
Humidity: 100%   Direction: 180°S
Pressure: 30.05"   Gusts: NA
Location:  38.81°N, 94.93°W
Report Text: KIXD 241038Z AUTO 18007KT 3/4SM BR VV001 12/12 A3005 RMK AO2 T01220122
Loading
Personal Weather Stations






























Interactive Weather Map New forecast layout! Learn more

10-Day Weather Forecast

Advertisements
Track Severe Weather on mobile